createdAt,value
2023-11-28T00:00:17.270Z,0.30
2023-11-28T00:02:46.215Z,0.30
2023-11-28T00:05:15.251Z,0.30
2023-11-28T00:07:43.723Z,0.20
2023-11-28T00:10:12.505Z,0.20
2023-11-28T00:12:40.947Z,0.20
2023-11-28T00:15:11.644Z,0.20
2023-11-28T00:17:41.567Z,0.20
2023-11-28T00:20:11.699Z,0.20
2023-11-28T00:22:40.208Z,0.20
2023-11-28T00:25:09.788Z,0.20
2023-11-28T00:27:38.235Z,0.20
2023-11-28T00:30:07.558Z,0.20
2023-11-28T00:32:36.059Z,0.20
2023-11-28T00:35:06.654Z,0.10
2023-11-28T00:37:35.096Z,0.10
2023-11-28T00:40:07.934Z,0.10
2023-11-28T00:42:36.343Z,0.10
2023-11-28T00:45:06.276Z,0.10
2023-11-28T00:47:34.826Z,0.20
2023-11-28T00:50:03.630Z,0.10
2023-11-28T00:52:33.482Z,0.10
2023-11-28T00:55:01.940Z,0.10
2023-11-28T00:57:30.416Z,0.10
2023-11-28T00:59:58.887Z,0.10
2023-11-28T01:02:27.438Z,0.10
2023-11-28T01:04:56.963Z,0.20
2023-11-28T01:07:25.393Z,0.20
2023-11-28T01:09:55.436Z,0.20
2023-11-28T01:12:23.857Z,0.20
2023-11-28T01:14:52.334Z,0.20
2023-11-28T01:17:20.987Z,0.20
2023-11-28T01:19:49.480Z,0.20
2023-11-28T01:22:18.872Z,0.20
2023-11-28T01:24:47.624Z,0.20
2023-11-28T01:27:17.390Z,0.20
2023-11-28T01:29:46.050Z,0.20
2023-11-28T01:32:14.589Z,0.20
2023-11-28T01:34:43.019Z,0.20
2023-11-28T01:37:11.825Z,0.20
2023-11-28T01:39:40.187Z,0.20
2023-11-28T01:42:08.861Z,0.10
2023-11-28T01:44:38.695Z,0.10
2023-11-28T01:47:08.686Z,0.10
2023-11-28T01:49:38.983Z,0.10
2023-11-28T01:52:09.270Z,0.10
2023-11-28T01:54:37.860Z,0.10
2023-11-28T01:57:06.977Z,0.00
2023-11-28T01:59:36.890Z,0.00
2023-11-28T02:02:09.844Z,-0.10
2023-11-28T02:04:40.099Z,0.00
2023-11-28T02:07:09.286Z,-0.10
2023-11-28T02:09:39.939Z,-0.20
2023-11-28T02:12:08.771Z,-0.20
2023-11-28T02:14:44.842Z,-0.20
2023-11-28T02:17:15.646Z,-0.30
2023-11-28T02:19:45.510Z,-0.40
2023-11-28T02:22:14.210Z,-0.40
2023-11-28T02:24:44.734Z,-0.50
2023-11-28T02:27:14.677Z,-0.60
2023-11-28T02:29:47.316Z,-0.60
2023-11-28T02:32:15.861Z,-0.80
2023-11-28T02:34:44.359Z,-0.90
2023-11-28T02:37:12.716Z,-1.00
2023-11-28T02:39:41.100Z,-1.10
2023-11-28T02:42:09.548Z,-1.20
2023-11-28T02:44:39.439Z,-1.30
2023-11-28T02:47:08.447Z,-1.40
2023-11-28T02:49:37.018Z,-1.50
2023-11-28T02:52:05.643Z,-1.60
2023-11-28T02:54:34.066Z,-1.70
2023-11-28T02:57:03.348Z,-1.70
2023-11-28T02:59:31.743Z,-1.70
2023-11-28T03:02:02.013Z,-1.80
2023-11-28T03:04:30.527Z,-1.80
2023-11-28T03:06:59.212Z,-1.80
2023-11-28T03:09:27.632Z,-1.80
2023-11-28T03:11:56.024Z,-1.80
2023-11-28T03:14:25.318Z,-1.80
2023-11-28T03:16:52.888Z,-1.80
2023-11-28T03:19:22.951Z,-1.80
2023-11-28T03:21:51.343Z,-1.90
2023-11-28T03:24:19.743Z,-1.90
2023-11-28T03:26:48.159Z,-1.90
2023-11-28T03:29:16.719Z,-1.80
2023-11-28T03:31:45.140Z,-1.70
2023-11-28T03:34:13.607Z,-1.50
2023-11-28T03:36:43.525Z,-1.40
2023-11-28T03:39:12.362Z,-1.30
2023-11-28T03:41:40.977Z,-1.20
2023-11-28T03:44:09.470Z,-1.10
2023-11-28T03:46:37.904Z,-1.10
2023-11-28T03:49:06.377Z,-1.10
2023-11-28T03:51:34.917Z,-1.10
2023-11-28T03:54:05.004Z,-1.20
2023-11-28T03:56:33.458Z,-1.30
2023-11-28T03:59:01.878Z,-1.40
2023-11-28T04:01:30.451Z,-1.50
2023-11-28T04:03:58.923Z,-1.50
2023-11-28T04:06:27.324Z,-1.60
2023-11-28T04:08:55.768Z,-1.60
2023-11-28T04:11:25.577Z,-1.70
2023-11-28T04:13:54.532Z,-1.70
2023-11-28T04:16:23.373Z,-1.70
2023-11-28T04:18:53.997Z,-1.70
2023-11-28T04:21:22.536Z,-1.80
2023-11-28T04:23:51.132Z,-1.70
2023-11-28T04:26:19.674Z,-1.70
2023-11-28T04:28:49.621Z,-1.70
2023-11-28T04:31:22.284Z,-1.60
2023-11-28T04:33:51.235Z,-1.70
2023-11-28T04:36:19.986Z,-1.60
2023-11-28T04:38:48.429Z,-1.70
2023-11-28T04:41:17.276Z,-1.70
2023-11-28T04:43:45.677Z,-1.80
2023-11-28T04:46:15.954Z,-1.90
2023-11-28T04:48:44.484Z,-2.00
2023-11-28T04:51:12.906Z,-2.10
2023-11-28T04:53:41.486Z,-2.10
2023-11-28T04:56:11.394Z,-2.10
2023-11-28T04:58:40.135Z,-2.10
2023-11-28T05:01:09.222Z,-2.00
2023-11-28T05:03:39.333Z,-2.10
2023-11-28T05:06:08.502Z,-2.10
2023-11-28T05:08:37.284Z,-2.00
2023-11-28T05:11:07.230Z,-2.10
2023-11-28T05:13:37.544Z,-2.00
2023-11-28T05:16:06.928Z,-2.00
2023-11-28T05:18:35.650Z,-1.90
2023-11-28T05:21:05.914Z,-1.80
2023-11-28T05:23:34.492Z,-1.80
2023-11-28T05:26:03.185Z,-1.80
2023-11-28T05:28:31.818Z,-1.80
2023-11-28T05:31:00.458Z,-1.90
2023-11-28T05:33:29.048Z,-2.00
2023-11-28T05:35:57.683Z,-2.00
2023-11-28T05:38:27.714Z,-2.10
2023-11-28T05:40:56.324Z,-2.10
2023-11-28T05:43:24.867Z,-2.20
2023-11-28T05:45:53.534Z,-2.20
2023-11-28T05:48:22.139Z,-2.30
2023-11-28T05:50:51.020Z,-2.40
2023-11-28T05:53:21.065Z,-2.50
2023-11-28T05:55:55.276Z,-2.60
2023-11-28T05:58:23.932Z,-2.60
2023-11-28T06:00:52.917Z,-2.80
2023-11-28T06:03:23.248Z,-2.70
2023-11-28T06:05:51.980Z,-2.70
2023-11-28T06:08:20.849Z,-2.80
2023-11-28T06:10:52.263Z,-2.90
2023-11-28T06:13:20.873Z,-3.00
2023-11-28T06:15:49.802Z,-3.00
2023-11-28T06:18:18.928Z,-3.10
2023-11-28T06:20:47.594Z,-3.20
2023-11-28T06:23:18.616Z,-3.20
2023-11-28T06:25:48.718Z,-3.30
2023-11-28T06:28:18.917Z,-3.20
2023-11-28T06:30:47.636Z,-3.20
2023-11-28T06:33:16.897Z,-3.20
2023-11-28T06:35:45.909Z,-3.20
2023-11-28T06:38:14.917Z,-3.20
2023-11-28T06:40:44.249Z,-3.20
2023-11-28T06:43:12.965Z,-3.20
2023-11-28T06:45:43.496Z,-3.20
2023-11-28T06:48:12.598Z,-3.30
2023-11-28T06:50:41.526Z,-3.20
2023-11-28T06:53:15.880Z,-3.30
2023-11-28T06:55:44.640Z,-3.30
2023-11-28T06:58:13.348Z,-3.30
2023-11-28T07:00:43.519Z,-3.20
2023-11-28T07:03:19.045Z,-3.20
2023-11-28T07:05:47.926Z,-3.00
2023-11-28T07:08:16.706Z,-3.00
2023-11-28T07:10:45.299Z,-3.00
2023-11-28T07:13:14.181Z,-3.00
2023-11-28T07:15:44.249Z,-3.00
2023-11-28T07:18:17.274Z,-2.90
2023-11-28T07:20:46.168Z,-2.90
2023-11-28T07:23:15.088Z,-2.80
2023-11-28T07:25:43.982Z,-2.80
2023-11-28T07:28:12.591Z,-2.60
2023-11-28T07:30:41.319Z,-2.70
2023-11-28T07:33:11.474Z,-2.70
2023-11-28T07:35:40.167Z,-2.70
2023-11-28T07:38:09.058Z,-2.60
2023-11-28T07:40:42.335Z,-2.60
2023-11-28T07:43:11.040Z,-2.50
2023-11-28T07:45:39.920Z,-2.40
2023-11-28T07:48:08.820Z,-2.40
2023-11-28T07:50:39.705Z,-2.30
2023-11-28T07:53:10.053Z,-2.30
2023-11-28T07:55:40.365Z,-2.30
2023-11-28T07:58:08.927Z,-2.20
2023-11-28T08:00:38.389Z,-2.20
2023-11-28T08:03:07.042Z,-2.20
2023-11-28T08:05:35.800Z,-2.20
2023-11-28T08:08:07.242Z,-2.10
2023-11-28T08:10:36.074Z,-2.10
2023-11-28T08:13:07.048Z,-1.90
2023-11-28T08:15:35.698Z,-1.90
2023-11-28T08:18:04.409Z,-1.80
2023-11-28T08:20:33.097Z,-1.70
2023-11-28T08:23:01.859Z,-1.70
2023-11-28T08:25:32.029Z,-1.70
2023-11-28T08:28:00.630Z,-1.60
2023-11-28T08:30:31.167Z,-1.60
2023-11-28T09:52:14.965Z,-0.20
2023-11-28T09:54:46.902Z,-0.10
2023-11-28T10:00:44.218Z,-0.10
2023-11-28T10:03:13.519Z,-0.10
2023-11-28T10:06:04.688Z,-0.10
2023-11-28T10:09:26.282Z,-0.10
2023-11-28T10:11:58.124Z,-0.10
2023-11-28T10:14:27.195Z,0.00
2023-11-28T10:17:13.149Z,0.00
2023-11-28T10:20:14.512Z,0.00
2023-11-28T10:26:31.644Z,0.20
2023-11-28T10:29:19.182Z,0.30
2023-11-28T10:31:53.114Z,0.40
2023-11-28T10:34:33.267Z,0.40
2023-11-28T10:37:16.233Z,0.40
2023-11-28T10:39:55.431Z,0.70
2023-11-28T10:42:27.837Z,0.60
2023-11-28T10:45:07.653Z,0.60
2023-11-28T10:47:53.202Z,0.50
2023-11-28T10:50:29.749Z,0.50
2023-11-28T10:53:19.292Z,0.50
2023-11-28T10:55:55.860Z,0.50
2023-11-28T10:58:32.346Z,0.50
2023-11-28T11:01:04.161Z,0.50
2023-11-28T11:03:35.466Z,0.50
2023-11-28T11:06:08.689Z,0.40
2023-11-28T11:08:38.829Z,0.40
2023-11-28T11:11:08.905Z,0.40
2023-11-28T11:13:46.454Z,0.40
2023-11-28T11:16:25.308Z,0.30
2023-11-28T11:18:57.875Z,0.20
2023-11-28T11:21:33.600Z,0.10
2023-11-28T11:24:02.659Z,0.20
2023-11-28T11:26:36.310Z,0.20
2023-11-28T11:29:05.525Z,0.30
2023-11-28T11:34:36.463Z,0.10
2023-11-28T11:37:09.534Z,0.00
2023-11-28T11:39:38.917Z,0.10
2023-11-28T11:42:10.753Z,0.10
2023-11-28T11:44:43.134Z,0.20
2023-11-28T11:47:22.141Z,0.20
2023-11-28T11:49:53.427Z,0.20
2023-11-28T11:52:26.305Z,0.10
2023-11-28T11:55:05.157Z,0.00
2023-11-28T11:57:33.772Z,0.00
2023-11-28T12:00:03.119Z,0.00
2023-11-28T12:02:41.503Z,0.10
2023-11-28T12:05:12.306Z,0.10
2023-11-28T12:07:42.911Z,0.10
2023-11-28T12:10:14.388Z,0.20
2023-11-28T12:12:45.113Z,0.20
2023-11-28T12:15:14.731Z,0.20
2023-11-28T12:17:44.889Z,0.30
2023-11-28T12:20:14.621Z,0.10
2023-11-28T12:22:43.299Z,0.10
2023-11-28T12:25:20.256Z,0.10
2023-11-28T12:27:49.171Z,0.20
2023-11-28T12:30:18.614Z,0.20
2023-11-28T12:32:49.065Z,0.10
2023-11-28T12:35:19.091Z,0.20
2023-11-28T12:37:48.971Z,0.20
2023-11-28T12:40:19.855Z,0.30
2023-11-28T12:42:49.065Z,0.30
2023-11-28T12:45:21.457Z,0.20
2023-11-28T12:47:51.924Z,0.20
2023-11-28T12:50:20.630Z,0.20
2023-11-28T12:52:49.493Z,0.20
2023-11-28T12:55:18.103Z,0.20
2023-11-28T12:57:46.971Z,0.10
2023-11-28T13:00:15.870Z,0.10
2023-11-28T13:02:44.779Z,0.10
2023-11-28T13:05:15.138Z,0.10
2023-11-28T13:07:48.169Z,0.00
2023-11-28T13:10:21.854Z,0.00
2023-11-28T13:12:52.064Z,-0.10
2023-11-28T13:15:24.842Z,-0.10
2023-11-28T13:17:53.610Z,-0.20
2023-11-28T13:20:24.149Z,-0.20
2023-11-28T13:22:52.782Z,-0.20
2023-11-28T13:25:22.019Z,-0.20
2023-11-28T13:27:50.607Z,-0.30
2023-11-28T13:30:20.102Z,-0.10
2023-11-28T13:32:49.112Z,-0.20
2023-11-28T13:35:21.484Z,-0.30
2023-11-28T13:37:52.263Z,-0.30
2023-11-28T13:40:21.329Z,-0.40
2023-11-28T13:42:49.901Z,-0.40
2023-11-28T13:45:18.810Z,-0.40
2023-11-28T13:47:47.890Z,-0.40
2023-11-28T13:50:16.665Z,-0.50
2023-11-28T13:52:45.360Z,-0.60
2023-11-28T13:55:16.523Z,-0.50
2023-11-28T13:57:46.330Z,-0.60
2023-11-28T14:00:15.607Z,-0.60
2023-11-28T14:02:45.778Z,-0.70
2023-11-28T14:05:14.886Z,-0.70
2023-11-28T14:07:43.459Z,-0.70
2023-11-28T14:10:12.300Z,-0.80
2023-11-28T14:12:42.435Z,-0.70
2023-11-28T14:15:11.971Z,-0.90
2023-11-28T14:17:40.764Z,-0.80
2023-11-28T14:20:12.904Z,-0.90
2023-11-28T14:22:42.516Z,-0.90
2023-11-28T14:25:14.949Z,-0.80
2023-11-28T14:27:45.830Z,-0.80
2023-11-28T14:30:15.281Z,-0.80
2023-11-28T14:32:43.895Z,-0.90
2023-11-28T14:35:14.882Z,-0.90
2023-11-28T14:37:43.773Z,-0.90
2023-11-28T14:40:15.515Z,-1.00
2023-11-28T14:42:47.842Z,-1.00
2023-11-28T14:45:16.688Z,-1.00
2023-11-28T14:47:47.731Z,-1.00
2023-11-28T14:50:16.916Z,-0.90
2023-11-28T14:52:45.720Z,-0.90
2023-11-28T14:55:14.686Z,-0.90
2023-11-28T14:57:44.921Z,-1.00
2023-11-28T15:00:18.078Z,-1.00
2023-11-28T15:02:47.306Z,-1.00
2023-11-28T15:05:16.500Z,-1.00
2023-11-28T15:07:45.798Z,-1.00
2023-11-28T15:10:14.936Z,-1.10
2023-11-28T15:12:45.120Z,-1.20
2023-11-28T15:15:13.980Z,-1.20
2023-11-28T15:17:42.873Z,-1.20
2023-11-28T15:20:19.559Z,-1.10
2023-11-28T15:22:48.365Z,-1.10
2023-11-28T15:25:17.368Z,-1.10
2023-11-28T15:27:47.399Z,-1.00
2023-11-28T15:30:16.533Z,-1.10
2023-11-28T15:32:45.230Z,-1.10
2023-11-28T15:35:14.487Z,-1.10
2023-11-28T15:37:52.495Z,-1.20
2023-11-28T15:40:24.433Z,-1.20
2023-11-28T15:42:54.387Z,-1.20
2023-11-28T15:45:25.052Z,-1.20
2023-11-28T15:47:53.688Z,-1.20
2023-11-28T15:50:23.110Z,-1.20
2023-11-28T15:52:53.158Z,-1.30
2023-11-28T15:55:22.648Z,-1.20
2023-11-28T15:57:52.906Z,-1.30
2023-11-28T16:00:23.514Z,-1.20
2023-11-28T16:02:53.958Z,-1.20
2023-11-28T16:05:23.202Z,-1.30
2023-11-28T16:07:52.060Z,-1.30
2023-11-28T16:10:21.609Z,-1.10
2023-11-28T16:12:50.504Z,-1.20
2023-11-28T16:15:19.604Z,-1.20
2023-11-28T16:17:57.928Z,-1.20
2023-11-28T16:20:31.389Z,-1.30
2023-11-28T16:23:02.197Z,-1.30
2023-11-28T16:25:35.694Z,-1.30
2023-11-28T16:31:29.760Z,-1.40
2023-11-28T16:33:59.877Z,-1.50
2023-11-28T16:36:28.490Z,-1.40
2023-11-28T16:38:57.182Z,-1.30
2023-11-28T16:41:28.160Z,-1.30
2023-11-28T16:43:56.879Z,-1.30
2023-11-28T16:46:25.694Z,-1.20
2023-11-28T16:48:54.956Z,-1.30
2023-11-28T16:51:25.402Z,-1.30
2023-11-28T16:53:57.681Z,-1.30
2023-11-28T16:56:26.706Z,-1.40
2023-11-28T16:58:55.712Z,-1.40
2023-11-28T17:01:24.622Z,-1.40
2023-11-28T17:03:53.530Z,-1.50
2023-11-28T17:06:22.420Z,-1.50
2023-11-28T17:08:52.735Z,-1.40
2023-11-28T17:11:22.882Z,-1.40
2023-11-28T17:13:53.981Z,-1.50
2023-11-28T17:16:24.541Z,-1.50
2023-11-28T17:18:53.952Z,-1.40
2023-11-28T17:21:24.039Z,-1.40
2023-11-28T17:23:54.462Z,-1.40
2023-11-28T17:26:23.265Z,-1.40
2023-11-28T17:28:52.812Z,-1.50
2023-11-28T17:31:23.365Z,-1.50
2023-11-28T17:33:52.076Z,-1.50
2023-11-28T17:36:20.934Z,-1.50
2023-11-28T17:38:50.490Z,-1.50
2023-11-28T17:41:21.056Z,-1.50
2023-11-28T17:43:49.698Z,-1.60
2023-11-28T17:46:18.967Z,-1.60
2023-11-28T17:48:47.977Z,-1.60
2023-11-28T17:51:22.330Z,-1.60
2023-11-28T17:53:52.745Z,-1.60
2023-11-28T17:56:24.287Z,-1.60
2023-11-28T17:58:52.942Z,-1.60
2023-11-28T18:01:22.731Z,-1.60
2023-11-28T18:03:51.534Z,-1.50
2023-11-28T18:06:20.458Z,-1.70
2023-11-28T18:08:49.257Z,-1.80
2023-11-28T18:11:18.001Z,-1.80
2023-11-28T18:13:49.748Z,-1.90
2023-11-28T18:16:24.266Z,-1.90
2023-11-28T18:19:00.199Z,-1.90
2023-11-28T18:21:29.151Z,-1.90
2023-11-28T18:23:57.898Z,-1.90
2023-11-28T18:26:26.703Z,-2.00
2023-11-28T18:28:56.979Z,-1.90
2023-11-28T18:31:26.905Z,-1.90
2023-11-28T18:33:56.833Z,-2.00
2023-11-28T18:36:26.278Z,-2.00
2023-11-28T18:39:04.078Z,-2.00
2023-11-28T18:41:34.814Z,-2.00
2023-11-28T18:44:04.922Z,-2.00
2023-11-28T18:46:34.421Z,-2.00
2023-11-28T18:49:03.358Z,-2.00
2023-11-28T18:51:32.142Z,-2.10
2023-11-28T18:54:00.746Z,-2.10
2023-11-28T18:56:30.477Z,-2.10
2023-11-28T18:58:59.333Z,-2.10
2023-11-28T19:01:33.416Z,-2.10
2023-11-28T19:04:02.224Z,-2.10
2023-11-28T19:06:32.253Z,-2.10
2023-11-28T19:09:01.129Z,-2.10
2023-11-28T19:11:30.627Z,-2.30
2023-11-28T19:14:05.118Z,-2.20
2023-11-28T19:16:36.101Z,-2.30
2023-11-28T19:19:05.014Z,-2.40
2023-11-28T19:21:34.445Z,-2.50
2023-11-28T19:24:03.381Z,-2.50
2023-11-28T19:26:31.988Z,-2.50
2023-11-28T19:29:00.816Z,-2.60
2023-11-28T19:31:29.541Z,-2.60
2023-11-28T19:33:59.673Z,-2.60
2023-11-28T19:36:29.293Z,-2.70
2023-11-28T19:38:58.029Z,-2.60
2023-11-28T19:41:26.894Z,-2.50
2023-11-28T19:43:55.633Z,-2.50
2023-11-28T19:46:25.064Z,-2.50
2023-11-28T19:48:53.906Z,-2.60
2023-11-28T19:51:23.942Z,-2.60
2023-11-28T19:53:53.141Z,-2.60
2023-11-28T19:56:22.085Z,-2.70
2023-11-28T19:58:51.511Z,-2.60
2023-11-28T20:01:20.186Z,-2.50
2023-11-28T20:03:50.632Z,-2.50
2023-11-28T20:06:19.582Z,-2.60
2023-11-28T20:08:49.649Z,-2.60
2023-11-28T20:11:18.450Z,-2.50
2023-11-28T20:13:47.022Z,-2.60
2023-11-28T20:16:15.746Z,-2.60
2023-11-28T20:18:45.125Z,-2.50
2023-11-28T20:21:14.395Z,-2.50
2023-11-28T20:23:43.166Z,-2.50
2023-11-28T20:26:13.361Z,-2.50
2023-11-28T20:28:42.389Z,-2.50
2023-11-28T20:31:13.448Z,-2.40
2023-11-28T20:33:42.283Z,-2.50
2023-11-28T20:36:11.291Z,-2.40
2023-11-28T20:38:40.244Z,-2.50
2023-11-28T20:41:09.291Z,-2.40
2023-11-28T20:43:39.326Z,-2.50
2023-11-28T20:46:08.524Z,-2.50
2023-11-28T20:48:37.316Z,-2.50
2023-11-28T20:51:06.178Z,-2.50
2023-11-28T20:53:34.930Z,-2.50
2023-11-28T20:56:05.334Z,-2.60
2023-11-28T20:58:33.954Z,-2.60
2023-11-28T21:01:04.621Z,-2.70
2023-11-28T21:03:33.303Z,-2.60
2023-11-28T21:06:02.416Z,-2.60
2023-11-28T21:08:31.723Z,-2.50
2023-11-28T21:11:00.467Z,-2.50
2023-11-28T21:13:30.000Z,-2.50
2023-11-28T21:15:58.660Z,-2.50
2023-11-28T21:18:28.842Z,-2.50
2023-11-28T21:20:57.737Z,-2.50
2023-11-28T21:23:26.803Z,-2.40
2023-11-28T21:25:56.525Z,-2.30
2023-11-28T21:28:25.196Z,-2.40
2023-11-28T21:30:54.062Z,-2.40
2023-11-28T21:33:23.025Z,-2.40
2023-11-28T21:35:54.669Z,-2.40
2023-11-28T21:38:23.347Z,-2.40
2023-11-28T21:40:51.942Z,-2.30
2023-11-28T21:43:25.485Z,-2.30
2023-11-28T21:45:54.220Z,-2.30
2023-11-28T21:48:27.782Z,-2.40
2023-11-28T21:50:58.579Z,-2.30
2023-11-28T21:53:28.389Z,-2.40
2023-11-28T21:55:57.312Z,-2.30
2023-11-28T21:58:25.999Z,-2.30
2023-11-28T22:00:54.792Z,-2.20
2023-11-28T22:03:24.360Z,-2.30
2023-11-28T22:05:53.556Z,-2.30
2023-11-28T22:08:25.246Z,-2.40
2023-11-28T22:10:58.247Z,-2.50
2023-11-28T22:13:28.386Z,-2.50
2023-11-28T22:15:59.256Z,-2.50
2023-11-28T22:18:28.011Z,-2.60
2023-11-28T22:20:56.688Z,-2.50
2023-11-28T22:23:26.755Z,-2.60
2023-11-28T22:25:55.621Z,-2.60
2023-11-28T22:28:24.620Z,-2.60
2023-11-28T22:30:56.152Z,-2.60
2023-11-28T22:33:27.342Z,-2.50
2023-11-28T22:35:57.214Z,-2.50
2023-11-28T22:38:30.861Z,-2.60
2023-11-28T22:41:00.898Z,-2.70
2023-11-28T22:43:30.876Z,-2.70
2023-11-28T22:45:59.964Z,-2.80
2023-11-28T22:48:28.809Z,-2.90
2023-11-28T22:50:57.715Z,-2.90
2023-11-28T22:53:26.958Z,-3.00
2023-11-28T22:55:56.044Z,-2.90
2023-11-28T22:58:24.952Z,-2.90
2023-11-28T23:00:56.190Z,-2.90
2023-11-28T23:03:26.227Z,-2.90
2023-11-28T23:05:55.026Z,-2.90
2023-11-28T23:08:23.725Z,-2.90
2023-11-28T23:10:57.683Z,-2.90
2023-11-28T23:13:29.455Z,-2.90
2023-11-28T23:15:58.529Z,-3.00
2023-11-28T23:18:36.327Z,-3.00
2023-11-28T23:21:06.034Z,-3.00
2023-11-28T23:23:34.977Z,-3.00
2023-11-28T23:26:04.052Z,-2.90
2023-11-28T23:28:34.419Z,-2.90
2023-11-28T23:31:03.932Z,-2.90
2023-11-28T23:33:32.740Z,-2.90
2023-11-28T23:36:01.761Z,-2.90
2023-11-28T23:38:31.143Z,-3.10
2023-11-28T23:40:59.951Z,-3.00
2023-11-28T23:43:28.665Z,-2.90
2023-11-28T23:45:58.712Z,-2.90
2023-11-28T23:48:27.423Z,-2.80
2023-11-28T23:50:56.097Z,-2.70
2023-11-28T23:53:24.796Z,-2.70
2023-11-28T23:55:53.836Z,-2.60
2023-11-28T23:58:22.716Z,-2.60
